Time;durP1;ratioP1;P1;durP2;ratioP2;P2;SDS_P1;SDS_P2;PMS_P1;PMS_P2;Temp;Humidity;BMP_temperature;BMP_pressure;BME280_temperature;BME280_humidity;BME280_pressure;Samples;Min_cycle;Max_cycle;Signal;HPM_P1;HPM_P2
2022/06/29 00:00:02;;;;;;;368.60;288.10;;;;;;;23.45;69.40;99681.72;411662;24;826;-75
2022/06/29 00:00:31;;;;;;;372.70;293.25;;;;;;;23.44;69.45;99674.72;409784;24;1084;-75
2022/06/29 00:00:43;;;;;;;369.90;293.13;;;;;;;23.44;69.65;99685.41;413581;23;810;-75
2022/06/29 00:00:53;;;;;;;367.83;286.92;;;;;;;23.43;69.20;99678.38;411761;24;889;-75
2022/06/29 00:01:04;;;;;;;367.67;286.13;;;;;;;23.46;69.66;99688.75;413695;23;846;-75
2022/06/29 00:01:14;;;;;;;367.00;285.00;;;;;;;23.47;69.41;99685.09;413462;23;812;-75
2022/06/29 00:01:24;;;;;;;367.93;288.57;;;;;;;23.48;69.06;99686.78;413545;23;1169;-75
2022/06/29 00:01:35;;;;;;;368.30;288.00;;;;;;;23.47;69.37;99678.91;413581;23;861;-75
2022/06/29 00:01:45;;;;;;;369.97;290.70;;;;;;;23.49;69.74;99684.97;413497;23;1186;-75
2022/06/29 00:01:56;;;;;;;370.30;289.63;;;;;;;23.48;69.61;99681.44;411627;24;912;-75
2022/06/29 00:02:06;;;;;;;371.97;292.27;;;;;;;23.48;69.54;99684.13;411752;24;905;-75
2022/06/29 00:02:16;;;;;;;370.90;290.87;;;;;;;23.49;69.19;99684.97;409692;24;1065;-75
2022/06/29 00:02:27;;;;;;;370.20;291.63;;;;;;;23.49;69.31;99691.16;409847;24;1249;-75
2022/06/29 00:02:37;;;;;;;370.40;291.73;;;;;;;23.48;69.26;99681.44;409751;24;763;-75
2022/06/29 00:02:48;;;;;;;371.05;293.02;;;;;;;23.48;69.28;99681.44;411667;24;862;-75
2022/06/29 00:02:58;;;;;;;369.13;291.63;;;;;;;23.50;69.53;99681.31;409785;24;1008;-75
2022/06/29 00:03:09;;;;;;;369.17;293.55;;;;;;;23.50;69.51;99684.81;409750;24;939;-75
2022/06/29 00:03:19;;;;;;;368.90;292.93;;;;;;;23.49;69.06;99687.63;411543;23;1195;-75
2022/06/29 00:03:30;;;;;;;368.70;292.42;;;;;;;23.44;69.25;99680.03;409866;24;879;-75
2022/06/29 00:03:40;;;;;;;368.37;289.37;;;;;;;23.43;69.72;99680.19;411809;24;785;-75
2022/06/29 00:03:51;;;;;;;369.83;290.60;;;;;;;23.41;69.14;99682.16;411819;24;964;-75
2022/06/29 00:04:02;;;;;;;369.25;288.65;;;;;;;23.41;69.70;99679.50;409798;24;932;-75
2022/06/29 00:04:12;;;;;;;368.73;289.00;;;;;;;23.43;69.50;99686.38;409631;24;1014;-75
2022/06/29 00:04:22;;;;;;;368.63;290.90;;;;;;;23.40;69.69;99678.66;409739;24;806;-75
2022/06/29 00:04:33;;;;;;;370.33;294.97;;;;;;;23.42;69.50;99686.53;411676;24;1262;-75
2022/06/29 00:04:43;;;;;;;368.88;293.27;;;;;;;23.41;69.34;99680.34;411635;24;1345;-75
2022/06/29 00:04:53;;;;;;;370.93;289.80;;;;;;;23.42;69.43;99686.53;409743;24;985;-74
2022/06/29 00:05:04;;;;;;;370.50;284.57;;;;;;;23.42;69.58;99686.53;409799;24;1114;-74
2022/06/29 00:05:21;;;;;;;372.75;282.48;;;;;;;23.43;69.90;99680.19;411292;24;1723;-75
2022/06/29 00:05:31;;;;;;;373.17;286.38;;;;;;;23.41;69.74;99683.00;409620;24;1499;-75
2022/06/29 00:05:42;;;;;;;373.70;292.17;;;;;;;23.36;70.08;99685.28;411789;24;836;-75
2022/06/29 00:05:52;;;;;;;371.30;292.40;;;;;;;23.35;69.98;99680.94;411608;24;814;-75
2022/06/29 00:06:02;;;;;;;368.90;289.77;;;;;;;23.35;69.79;99686.28;411667;24;977;-75
2022/06/29 00:06:13;;;;;;;368.03;286.20;;;;;;;23.36;69.93;99681.78;409692;24;1175;-75
2022/06/29 00:06:23;;;;;;;368.63;285.60;;;;;;;23.35;70.24;99680.94;411620;24;884;-75
2022/06/29 00:06:34;;;;;;;368.50;286.27;;;;;;;23.36;70.02;99682.63;411688;24;806;-75
2022/06/29 00:06:44;;;;;;;370.60;288.33;;;;;;;23.35;69.67;99680.94;411649;24;1034;-75
2022/06/29 00:06:55;;;;;;;370.05;287.63;;;;;;;23.35;70.23;99680.09;411522;24;1090;-74
2022/06/29 00:07:05;;;;;;;370.73;285.13;;;;;;;23.34;70.11;99681.91;409697;24;1212;-74
2022/06/29 00:07:16;;;;;;;369.37;285.87;;;;;;;23.34;70.24;99681.91;411606;24;923;-74
2022/06/29 00:07:26;;;;;;;368.52;285.27;;;;;;;23.33;70.27;99688.25;411714;24;859;-74
2022/06/29 00:07:36;;;;;;;371.63;289.03;;;;;;;23.34;70.10;99679.25;413716;23;927;-74
2022/06/29 00:07:47;;;;;;;372.80;288.17;;;;;;;23.33;70.13;99677.56;408926;24;827;-75
2022/06/29 00:07:57;;;;;;;370.40;287.03;;;;;;;23.35;70.05;99678.25;409563;24;1069;-75
2022/06/29 00:08:08;;;;;;;372.05;288.77;;;;;;;23.32;70.29;99675.88;409669;24;1003;-75
2022/06/29 00:08:18;;;;;;;371.47;292.07;;;;;;;23.34;70.21;99681.91;413393;23;807;-75
2022/06/29 00:08:29;;;;;;;371.63;289.67;;;;;;;23.33;70.09;99685.56;413570;23;878;-74
2022/06/29 00:08:39;;;;;;;368.30;286.70;;;;;;;23.33;70.53;99682.06;409662;24;1179;-74
2022/06/29 00:08:50;;;;;;;367.60;283.83;;;;;;;23.32;70.27;99681.22;409418;24;1445;-76
2022/06/29 00:09:00;;;;;;;369.33;285.67;;;;;;;23.31;70.39;99679.53;409899;24;913;-75
2022/06/29 00:09:10;;;;;;;367.58;284.10;;;;;;;23.32;70.02;99681.22;409755;24;1392;-75
2022/06/29 00:09:21;;;;;;;368.27;286.23;;;;;;;23.34;70.47;99678.41;409748;24;932;-75
2022/06/29 00:09:31;;;;;;;369.43;289.77;;;;;;;23.33;70.44;99684.72;409613;24;1320;-75
2022/06/29 00:09:42;;;;;;;370.13;289.52;;;;;;;23.34;70.50;99678.41;409674;24;869;-75
2022/06/29 00:09:52;;;;;;;370.03;287.93;;;;;;;23.33;70.25;99677.56;409797;24;1151;-75
2022/06/29 00:10:03;;;;;;;367.40;285.48;;;;;;;23.30;70.42;99677.84;409687;24;1649;-75
2022/06/29 00:10:14;;;;;;;367.40;288.05;;;;;;;23.31;70.34;99678.69;409480;24;1699;-75
2022/06/29 00:10:24;;;;;;;368.80;291.63;;;;;;;23.32;70.27;99675.88;409529;24;1201;-75
2022/06/29 00:10:35;;;;;;;369.58;292.27;;;;;;;23.30;70.56;99677.84;409684;24;1216;-75
2022/06/29 00:10:46;;;;;;;368.13;286.40;;;;;;;23.29;70.28;99681.50;409801;24;917;-75
2022/06/29 00:10:56;;;;;;;371.00;288.47;;;;;;;23.28;70.45;99676.28;411619;24;896;-75
2022/06/29 00:11:06;;;;;;;371.25;290.65;;;;;;;23.28;70.64;99674.47;411659;24;947;-75
2022/06/29 00:11:17;;;;;;;370.80;291.43;;;;;;;23.31;70.41;99679.53;408119;24;1266;-75
2022/06/29 00:11:28;;;;;;;368.20;289.05;;;;;;;23.31;70.69;99679.53;409652;24;849;-75
2022/06/29 00:11:38;;;;;;;368.77;287.57;;;;;;;23.30;70.22;99680.50;411590;23;1447;-75
2022/06/29 00:11:48;;;;;;;370.88;289.90;;;;;;;23.30;70.32;99677.00;411735;24;884;-75
2022/06/29 00:11:59;;;;;;;370.47;288.90;;;;;;;23.27;70.80;99672.78;409785;24;1171;-75
2022/06/29 00:12:09;;;;;;;371.30;293.25;;;;;;;23.29;70.70;99672.63;413553;23;1187;-75
2022/06/29 00:12:20;;;;;;;369.37;291.70;;;;;;;23.29;70.60;99678.81;415636;23;884;-75
2022/06/29 00:12:30;;;;;;;368.60;288.00;;;;;;;23.27;70.92;99672.78;415515;23;1368;-75
2022/06/29 00:12:42;;;;;;;369.93;289.93;;;;;;;23.27;70.42;99682.63;415609;23;758;-75
2022/06/29 00:12:53;;;;;;;372.70;294.30;;;;;;;23.27;70.77;99674.59;413656;23;873;-75
2022/06/29 00:13:03;;;;;;;371.70;289.70;;;;;;;23.25;70.54;99669.41;413486;23;1403;-75
2022/06/29 00:13:14;;;;;;;371.83;288.73;;;;;;;23.25;70.88;99673.91;411469;23;1194;-75
2022/06/29 00:13:24;;;;;;;370.90;289.60;;;;;;;23.25;70.98;99668.56;409759;24;787;-74
2022/06/29 00:13:35;;;;;;;371.33;292.27;;;;;;;23.25;70.84;99669.41;409765;24;816;-74
2022/06/29 00:13:45;;;;;;;371.45;291.75;;;;;;;23.27;70.99;99672.78;409641;24;877;-74
2022/06/29 00:13:55;;;;;;;371.47;289.80;;;;;;;23.27;70.86;99678.13;409846;24;1389;-74
2022/06/29 00:14:06;;;;;;;370.23;291.20;;;;;;;23.28;70.93;99670.97;411758;24;1001;-74
2022/06/29 00:14:16;;;;;;;369.93;286.90;;;;;;;23.28;70.78;99685.16;413613;23;869;-74
2022/06/29 00:14:27;;;;;;;369.47;288.30;;;;;;;23.27;70.79;99672.78;417405;23;1186;-74
2022/06/29 00:14:41;;;;;;;368.77;288.20;;;;;;;23.28;70.94;99684.31;413409;23;1349;-74
2022/06/29 00:14:52;;;;;;;367.23;284.58;;;;;;;23.28;70.84;99673.63;413657;23;867;-74
2022/06/29 00:15:03;;;;;;;367.90;284.13;;;;;;;23.27;70.54;99678.13;413612;23;1182;-75
2022/06/29 00:15:14;;;;;;;367.50;285.75;;;;;;;23.27;70.72;99678.13;413573;23;817;-75
2022/06/29 00:15:25;;;;;;;369.05;290.42;;;;;;;23.28;70.84;99674.47;411501;24;1372;-75
2022/06/29 00:15:35;;;;;;;370.50;290.03;;;;;;;23.26;70.72;99679.09;409663;24;902;-75
2022/06/29 00:15:46;;;;;;;371.55;291.35;;;;;;;23.28;70.79;99673.63;411577;24;1305;-75
2022/06/29 00:15:56;;;;;;;372.33;294.23;;;;;;;23.26;70.65;99676.44;413682;23;885;-75
2022/06/29 00:16:07;;;;;;;372.00;295.25;;;;;;;23.27;71.00;99679.94;415526;23;1203;-75
2022/06/29 00:16:17;;;;;;;371.37;292.57;;;;;;;23.25;70.95;99677.41;415376;23;1301;-74
2022/06/29 00:16:27;;;;;;;369.97;289.63;;;;;;;23.24;70.71;99673.06;413431;23;1836;-74
2022/06/29 00:16:38;;;;;;;368.58;290.45;;;;;;;23.23;70.97;99679.38;411783;24;818;-74
2022/06/29 00:16:48;;;;;;;370.17;293.40;;;;;;;23.22;71.09;99675.03;413337;23;1863;-74
2022/06/29 00:16:58;;;;;;;371.10;294.92;;;;;;;23.22;70.95;99672.38;412666;23;858;-75
2022/06/29 00:17:10;;;;;;;370.70;293.47;;;;;;;23.21;70.71;99676.00;413347;23;1307;-75
2022/06/29 00:17:20;;;;;;;372.30;292.08;;;;;;;23.22;70.63;99675.03;411382;24;901;-74
2022/06/29 00:17:31;;;;;;;371.10;288.58;;;;;;;23.22;71.07;99675.03;413536;23;946;-75
2022/06/29 00:17:42;;;;;;;371.93;288.57;;;;;;;23.22;70.88;99673.22;413531;23;829;-75
2022/06/29 00:17:52;;;;;;;367.98;286.75;;;;;;;23.22;70.90;99677.69;409754;24;1388;-75
2022/06/29 00:18:03;;;;;;;367.70;287.83;;;;;;;23.22;70.59;99675.88;411500;24;1008;-75
2022/06/29 00:18:13;;;;;;;369.27;289.63;;;;;;;23.25;71.01;99674.75;409753;24;1152;-75
2022/06/29 00:18:24;;;;;;;371.00;293.70;;;;;;;23.22;71.07;99675.88;409763;24;1318;-75
2022/06/29 00:18:35;;;;;;;372.47;293.17;;;;;;;23.20;71.04;99677.84;409742;24;846;-75
2022/06/29 00:18:45;;;;;;;372.10;291.95;;;;;;;23.21;70.73;99673.34;411720;24;911;-75
2022/06/29 00:18:55;;;;;;;371.05;291.08;;;;;;;23.22;70.96;99675.03;411656;24;1133;-75
2022/06/29 00:19:06;;;;;;;369.43;293.03;;;;;;;23.21;71.16;99674.19;409821;24;1077;-75
2022/06/29 00:19:16;;;;;;;369.17;293.48;;;;;;;23.23;71.16;99672.22;411749;24;934;-75
2022/06/29 00:19:27;;;;;;;368.97;292.27;;;;;;;23.22;71.14;99680.38;411737;24;853;-75
2022/06/29 00:19:37;;;;;;;370.13;295.40;;;;;;;23.25;71.11;99673.91;409880;24;955;-75
2022/06/29 00:19:48;;;;;;;370.23;294.10;;;;;;;23.23;71.17;99674.88;411557;24;1448;-75
2022/06/29 00:19:59;;;;;;;369.60;293.58;;;;;;;23.22;70.88;99680.38;411756;24;894;-75
2022/06/29 00:20:10;;;;;;;368.75;289.35;;;;;;;23.22;70.82;99665.19;413564;23;861;-75
2022/06/29 00:20:21;;;;;;;366.92;288.90;;;;;;;23.22;71.13;99675.03;411569;24;964;-75
2022/06/29 00:20:32;;;;;;;366.75;289.55;;;;;;;23.24;70.88;99678.41;411760;24;992;-75
2022/06/29 00:20:42;;;;;;;369.30;290.88;;;;;;;23.23;70.78;99671.38;411351;24;921;-75
2022/06/29 00:20:52;;;;;;;368.27;289.63;;;;;;;23.25;70.79;99679.25;407947;24;1274;-75
2022/06/29 00:21:03;;;;;;;367.77;290.77;;;;;;;23.23;71.07;99671.38;409623;24;1181;-75
2022/06/29 00:21:13;;;;;;;365.80;290.80;;;;;;;23.20;70.95;99671.66;411706;24;1030;-75
2022/06/29 00:21:24;;;;;;;368.10;293.87;;;;;;;23.21;71.13;99668.84;411604;24;1179;-74
2022/06/29 00:21:34;;;;;;;369.58;295.10;;;;;;;23.20;71.01;99672.50;411755;24;851;-74
2022/06/29 00:21:44;;;;;;;371.87;296.57;;;;;;;23.18;70.71;99674.47;409893;24;889;-74
2022/06/29 00:21:55;;;;;;;372.88;297.15;;;;;;;23.16;71.34;99680.94;409714;24;803;-75
2022/06/29 00:22:06;;;;;;;373.37;293.93;;;;;;;23.15;71.38;99673.91;409885;24;878;-75
2022/06/29 00:22:16;;;;;;;372.65;294.23;;;;;;;23.15;71.00;99673.91;411696;24;975;-74
2022/06/29 00:22:27;;;;;;;370.13;294.60;;;;;;;23.13;71.19;99670.53;411805;24;1094;-74
2022/06/29 00:22:38;;;;;;;370.73;296.02;;;;;;;23.13;71.42;99673.22;413620;23;1375;-74
2022/06/29 00:22:49;;;;;;;368.95;292.85;;;;;;;23.13;71.39;99675.88;411549;24;853;-74
2022/06/29 00:22:59;;;;;;;369.77;294.53;;;;;;;23.11;71.19;99673.34;413604;23;1418;-74
2022/06/29 00:23:10;;;;;;;368.77;291.50;;;;;;;23.15;71.14;99684.59;415526;23;897;-74
2022/06/29 00:23:21;;;;;;;370.85;294.15;;;;;;;23.13;71.04;99670.53;415614;23;825;-74
2022/06/29 00:23:31;;;;;;;369.47;291.47;;;;;;;23.11;71.32;99673.34;411658;24;878;-74
2022/06/29 00:23:41;;;;;;;371.23;297.10;;;;;;;23.11;71.10;99676.00;409624;24;1278;-74
2022/06/29 00:23:52;;;;;;;369.83;291.45;;;;;;;23.12;71.16;99666.19;411670;24;842;-74
2022/06/29 00:24:02;;;;;;;372.47;293.30;;;;;;;23.12;71.38;99676.84;415547;23;920;-74
2022/06/29 00:24:13;;;;;;;373.33;295.17;;;;;;;23.11;71.61;99669.84;415456;23;1318;-75
2022/06/29 00:24:23;;;;;;;375.07;297.30;;;;;;;23.10;71.45;99673.47;413471;23;818;-75
2022/06/29 00:24:33;;;;;;;374.38;295.25;;;;;;;23.12;71.17;99674.19;413626;23;1414;-75
2022/06/29 00:24:44;;;;;;;373.90;296.77;;;;;;;23.10;71.40;99671.66;411752;24;935;-74
2022/06/29 00:24:54;;;;;;;374.37;295.37;;;;;;;23.09;71.50;99669.97;411694;24;1168;-75
2022/06/29 00:25:05;;;;;;;372.85;295.70;;;;;;;23.09;71.55;99671.78;409689;24;1362;-75
2022/06/29 00:25:15;;;;;;;371.80;291.35;;;;;;;23.07;71.15;99673.75;409481;24;807;-75
2022/06/29 00:25:26;;;;;;;371.00;292.07;;;;;;;23.08;71.27;99670.13;411464;24;1432;-74
2022/06/29 00:25:36;;;;;;;372.42;289.38;;;;;;;23.08;71.37;99673.63;411601;24;1301;-74
2022/06/29 00:25:47;;;;;;;372.10;290.87;;;;;;;23.08;71.52;99672.78;411696;24;852;-74
2022/06/29 00:25:57;;;;;;;373.45;294.70;;;;;;;23.07;71.30;99674.59;411608;24;881;-74
2022/06/29 00:26:08;;;;;;;371.83;295.90;;;;;;;23.08;71.27;99672.78;408366;24;1581;-74
2022/06/29 00:26:18;;;;;;;373.27;298.00;;;;;;;23.08;71.37;99678.13;407732;24;866;-74
2022/06/29 00:26:28;;;;;;;375.83;300.77;;;;;;;23.07;71.57;99673.75;409660;24;1422;-74
2022/06/29 00:26:39;;;;;;;375.53;300.57;;;;;;;23.03;71.45;99675.03;411655;24;845;-74
2022/06/29 00:26:50;;;;;;;374.83;297.08;;;;;;;23.03;71.58;99675.88;411417;24;1285;-74
2022/06/29 00:27:00;;;;;;;371.27;291.73;;;;;;;23.03;71.63;99669.69;411636;24;878;-74
2022/06/29 00:27:11;;;;;;;372.17;293.33;;;;;;;23.02;71.80;99668.00;407927;24;990;-74
2022/06/29 00:27:21;;;;;;;373.17;292.33;;;;;;;23.02;71.51;99673.34;409605;24;1259;-74
2022/06/29 00:27:32;;;;;;;375.13;295.87;;;;;;;23.02;71.46;99679.53;411725;24;1115;-74
2022/06/29 00:27:43;;;;;;;375.80;296.90;;;;;;;23.03;71.52;99673.19;411521;24;1518;-74
2022/06/29 00:27:53;;;;;;;375.95;297.38;;;;;;;23.03;71.60;99673.19;409745;24;926;-76
2022/06/29 00:28:04;;;;;;;376.17;296.33;;;;;;;23.03;71.71;99675.03;411541;24;996;-76
2022/06/29 00:28:14;;;;;;;374.30;294.38;;;;;;;23.02;71.83;99668.00;413611;23;1111;-75
2022/06/29 00:28:25;;;;;;;372.10;293.97;;;;;;;23.02;72.01;99668.84;413456;23;1632;-75
2022/06/29 00:28:35;;;;;;;369.95;291.77;;;;;;;23.03;71.39;99672.34;415351;23;1252;-75
2022/06/29 00:28:45;;;;;;;371.63;296.47;;;;;;;23.04;71.60;99676.72;413685;23;901;-75
2022/06/29 00:28:56;;;;;;;374.58;301.58;;;;;;;23.03;71.69;99677.69;413639;23;1008;-75
2022/06/29 00:29:06;;;;;;;375.47;302.93;;;;;;;23.03;71.69;99673.19;413600;23;850;-75
2022/06/29 00:29:16;;;;;;;372.63;294.33;;;;;;;23.02;71.71;99673.34;411639;23;1164;-75
2022/06/29 00:29:27;;;;;;;370.77;290.10;;;;;;;23.02;71.47;99673.34;411597;24;889;-75
2022/06/29 00:29:37;;;;;;;371.53;290.50;;;;;;;23.02;71.75;99676.00;411782;24;1053;-75
2022/06/29 00:29:48;;;;;;;372.27;294.02;;;;;;;23.03;71.79;99669.69;415446;23;1217;-75
2022/06/29 00:29:58;;;;;;;372.33;296.17;;;;;;;23.02;71.98;99670.66;413761;23;903;-75
2022/06/29 00:30:09;;;;;;;371.17;295.83;;;;;;;23.01;71.97;99672.50;411558;23;1489;-74
2022/06/29 00:30:20;;;;;;;371.48;297.98;;;;;;;23.03;71.66;99680.38;411605;24;922;-74
2022/06/29 00:30:32;;;;;;;372.17;297.33;;;;;;;23.02;71.97;99668.00;411654;24;799;-77
2022/06/29 00:30:43;;;;;;;372.08;298.05;;;;;;;22.99;72.29;99673.63;409605;24;1247;-74
2022/06/29 00:30:53;;;;;;;371.47;294.97;;;;;;;22.98;71.75;99671.94;409723;24;1195;-74
2022/06/29 00:31:04;;;;;;;371.88;294.40;;;;;;;22.98;72.10;99669.25;411698;24;1380;-74
2022/06/29 00:31:14;;;;;;;372.30;296.70;;;;;;;23.00;71.58;99670.81;409444;24;936;-74
2022/06/29 00:31:24;;;;;;;373.37;301.10;;;;;;;23.00;71.89;99670.81;411517;24;1266;-74
2022/06/29 00:31:35;;;;;;;374.23;299.15;;;;;;;22.99;71.82;99673.63;413587;23;889;-74
2022/06/29 00:31:45;;;;;;;375.37;299.73;;;;;;;23.00;71.66;99665.47;411530;24;1252;-74
2022/06/29 00:31:56;;;;;;;374.65;300.05;;;;;;;23.01;71.96;99668.97;413492;23;1328;-74
2022/06/29 00:32:07;;;;;;;373.17;297.77;;;;;;;23.01;72.15;99668.97;417546;23;800;-74
2022/06/29 00:32:17;;;;;;;372.15;295.30;;;;;;;23.03;72.13;99678.53;415355;23;914;-74
2022/06/29 00:32:27;;;;;;;371.45;294.73;;;;;;;23.04;72.09;99671.38;415639;23;841;-74
2022/06/29 00:32:38;;;;;;;372.23;292.27;;;;;;;23.04;71.60;99668.72;411699;24;881;-74
2022/06/29 00:32:48;;;;;;;373.20;290.45;;;;;;;23.05;71.95;99667.72;409613;24;1307;-74
2022/06/29 00:32:59;;;;;;;371.03;285.40;;;;;;;23.04;72.04;99666.03;411554;24;1020;-74
2022/06/29 00:33:09;;;;;;;372.47;292.00;;;;;;;23.04;71.58;99671.38;411619;24;850;-74
2022/06/29 00:33:19;;;;;;;371.27;291.83;;;;;;;23.04;72.24;99668.72;411496;23;1507;-74
2022/06/29 00:33:30;;;;;;;374.50;294.97;;;;;;;23.02;71.81;99668.84;411727;24;859;-74
2022/06/29 00:33:40;;;;;;;373.80;294.02;;;;;;;23.00;71.94;99668.13;407780;24;1301;-74
2022/06/29 00:33:51;;;;;;;373.83;297.77;;;;;;;23.02;72.09;99668.00;409692;24;843;-73
2022/06/29 00:34:01;;;;;;;372.37;298.63;;;;;;;23.01;71.76;99668.97;409869;24;874;-74
2022/06/29 00:34:11;;;;;;;369.60;294.98;;;;;;;23.03;72.28;99669.69;409738;24;874;-74
2022/06/29 00:34:22;;;;;;;369.50;290.73;;;;;;;23.02;71.98;99668.00;409667;24;862;-74
2022/06/29 00:34:32;;;;;;;370.88;290.92;;;;;;;23.03;71.91;99661.69;409694;24;1450;-74
2022/06/29 00:34:43;;;;;;;375.70;294.93;;;;;;;23.03;71.95;99664.34;411576;24;837;-74
2022/06/29 00:34:53;;;;;;;375.02;296.80;;;;;;;23.03;72.33;99661.69;411554;24;1036;-74
2022/06/29 00:35:04;;;;;;;373.10;295.10;;;;;;;23.04;72.47;99666.03;413511;23;1567;-74
2022/06/29 00:35:14;;;;;;;371.13;294.63;;;;;;;23.03;71.90;99664.34;410915;24;1009;-74
2022/06/29 00:35:25;;;;;;;372.37;297.17;;;;;;;23.03;72.05;99664.34;410990;24;913;-74
2022/06/29 00:35:35;;;;;;;375.27;298.03;;;;;;;23.03;72.11;99664.34;411625;24;831;-74
2022/06/29 00:35:46;;;;;;;376.73;297.70;;;;;;;23.02;72.29;99663.50;411552;24;810;-74
2022/06/29 00:35:56;;;;;;;377.90;299.03;;;;;;;23.01;72.54;99671.66;409737;24;1160;-74
2022/06/29 00:36:07;;;;;;;375.60;299.70;;;;;;;22.98;72.06;99661.25;409769;24;874;-74
2022/06/29 00:36:17;;;;;;;374.57;301.47;;;;;;;23.00;72.32;99664.63;407778;24;925;-74
2022/06/29 00:36:28;;;;;;;372.77;299.90;;;;;;;23.00;72.11;99664.63;409769;24;1612;-74
2022/06/29 00:36:38;;;;;;;373.50;299.40;;;;;;;23.00;72.28;99664.63;409768;24;963;-74
2022/06/29 00:36:48;;;;;;;372.30;292.97;;;;;;;22.99;72.68;99657.59;409676;24;1949;-74
2022/06/29 00:36:59;;;;;;;375.00;295.08;;;;;;;22.99;72.79;99665.59;411605;24;1387;-74
2022/06/29 00:37:09;;;;;;;373.03;292.57;;;;;;;23.01;72.20;99663.66;411520;23;1404;-74
2022/06/29 00:37:20;;;;;;;373.33;292.85;;;;;;;23.01;72.41;99660.97;413514;23;835;-74
2022/06/29 00:37:30;;;;;;;371.83;292.63;;;;;;;23.01;72.28;99660.97;417396;23;1327;-74
2022/06/29 00:37:41;;;;;;;373.55;294.10;;;;;;;23.01;72.40;99660.97;411479;24;855;-74
2022/06/29 00:37:51;;;;;;;375.83;298.47;;;;;;;23.01;72.11;99661.81;411624;24;1389;-74
2022/06/29 00:38:01;;;;;;;374.48;293.23;;;;;;;23.02;72.34;99668.00;411346;24;1386;-74
2022/06/29 00:38:12;;;;;;;371.67;289.50;;;;;;;23.00;72.83;99659.28;413507;23;847;-75
2022/06/29 00:38:22;;;;;;;373.10;290.43;;;;;;;23.00;72.67;99660.13;409764;24;954;-75
2022/06/29 00:38:33;;;;;;;374.58;298.17;;;;;;;23.00;72.57;99662.81;409849;24;893;-75
2022/06/29 00:38:43;;;;;;;375.17;298.73;;;;;;;23.00;72.53;99657.47;413451;23;1339;-75
2022/06/29 00:38:53;;;;;;;370.65;295.98;;;;;;;23.01;72.69;99663.66;411429;24;1199;-75
2022/06/29 00:39:04;;;;;;;369.97;293.53;;;;;;;22.99;72.67;99662.94;409711;24;854;-74
2022/06/29 00:39:14;;;;;;;369.60;291.77;;;;;;;22.98;72.81;99658.59;413546;23;1332;-74
2022/06/29 00:39:25;;;;;;;372.52;293.73;;;;;;;22.98;72.80;99666.59;415532;23;1120;-74
2022/06/29 00:39:35;;;;;;;373.00;295.13;;;;;;;22.97;72.58;99655.06;415591;23;1039;-74
2022/06/29 00:39:45;;;;;;;373.10;296.35;;;;;;;22.96;72.76;99658.72;415621;23;1104;-74
2022/06/29 00:39:56;;;;;;;371.40;291.63;;;;;;;22.97;72.68;99655.06;415592;23;875;-74
2022/06/29 00:40:07;;;;;;;371.23;290.65;;;;;;;22.98;72.73;99661.25;409627;24;1416;-74
2022/06/29 00:40:18;;;;;;;373.45;287.85;;;;;;;22.97;72.80;99659.56;409513;24;1027;-74
2022/06/29 00:40:28;;;;;;;372.80;285.48;;;;;;;22.96;73.10;99657.91;407778;24;1264;-74
2022/06/29 00:40:39;;;;;;;374.90;285.60;;;;;;;22.97;72.87;99659.56;411517;24;816;-74
2022/06/29 00:40:50;;;;;;;373.05;286.05;;;;;;;22.96;72.93;99656.06;409764;24;898;-74
2022/06/29 00:41:00;;;;;;;374.80;289.65;;;;;;;22.96;72.84;99657.91;413452;23;798;-74
2022/06/29 00:41:10;;;;;;;374.13;284.63;;;;;;;22.97;72.82;99660.41;409470;24;1307;-74
2022/06/29 00:41:21;;;;;;;374.60;283.57;;;;;;;22.97;73.09;99655.06;409769;24;894;-74
2022/06/29 00:41:31;;;;;;;373.40;282.70;;;;;;;22.98;73.23;99655.91;411527;24;791;-74
2022/06/29 00:41:45;;;;;;;373.60;288.37;;;;;;;22.99;72.83;99654.94;412573;23;1537;-74
2022/06/29 00:41:56;;;;;;;370.35;287.08;;;;;;;23.00;72.76;99653.94;413576;23;980;-74
2022/06/29 00:42:06;;;;;;;369.40;284.10;;;;;;;22.96;73.09;99657.91;413538;23;1546;-74
2022/06/29 00:42:17;;;;;;;370.77;286.07;;;;;;;22.97;73.11;99649.72;413552;23;1078;-75
2022/06/29 00:42:27;;;;;;;373.02;290.92;;;;;;;22.99;73.00;99655.78;411646;24;1259;-75
2022/06/29 00:42:38;;;;;;;373.10;294.33;;;;;;;22.98;73.35;99656.75;411555;23;1324;-75
2022/06/29 00:42:48;;;;;;;373.98;295.05;;;;;;;22.97;73.30;99652.41;411756;24;802;-75
2022/06/29 00:42:58;;;;;;;371.87;293.90;;;;;;;22.97;73.40;99654.22;409541;24;1004;-75
2022/06/29 00:43:09;;;;;;;372.30;293.73;;;;;;;22.97;73.00;99654.22;411633;24;1196;-75
2022/06/29 00:43:19;;;;;;;371.80;293.40;;;;;;;22.99;72.92;99652.25;411682;24;816;-75
2022/06/29 00:43:42;;;;;;;371.95;292.23;;;;;;;23.00;73.23;99659.28;409650;24;1199;-75
2022/06/29 00:43:52;;;;;;;369.92;288.05;;;;;;;23.02;73.20;99657.31;407810;24;893;-75
2022/06/29 00:44:03;;;;;;;370.17;289.05;;;;;;;23.01;72.99;99661.81;411480;23;1301;-75
2022/06/29 00:44:17;;;;;;;369.63;287.47;;;;;;;22.99;73.11;99657.59;409846;24;1334;-75
2022/06/29 00:44:28;;;;;;;369.98;287.70;;;;;;;22.95;73.18;99657.06;412513;23;897;-75
2022/06/29 00:44:38;;;;;;;370.20;289.30;;;;;;;22.97;73.08;99655.06;417024;23;1308;-75
2022/06/29 00:44:49;;;;;;;375.27;292.27;;;;;;;22.97;72.98;99652.41;417451;23;992;-75
2022/06/29 00:44:59;;;;;;;376.97;296.33;;;;;;;22.95;73.17;99656.22;417438;23;923;-75
2022/06/29 00:45:10;;;;;;;374.98;291.25;;;;;;;22.96;73.51;99652.56;417280;23;927;-75
2022/06/29 00:45:20;;;;;;;371.67;289.97;;;;;;;22.95;73.45;99651.72;415268;23;1225;-75
2022/06/29 00:45:31;;;;;;;370.27;284.92;;;;;;;22.96;73.41;99656.06;415445;23;896;-75
2022/06/29 00:45:41;;;;;;;371.07;283.67;;;;;;;22.95;73.15;99656.22;413654;23;895;-75
2022/06/29 00:45:51;;;;;;;369.25;281.83;;;;;;;22.96;72.98;99660.59;409698;24;898;-75
2022/06/29 00:46:02;;;;;;;369.60;286.13;;;;;;;22.95;72.86;99662.41;411802;24;819;-75
2022/06/29 00:46:12;;;;;;;371.10;288.23;;;;;;;22.98;72.99;99655.91;411696;24;852;-75
2022/06/29 00:46:23;;;;;;;371.30;288.27;;;;;;;22.97;73.17;99667.56;409485;24;823;-75
2022/06/29 00:46:34;;;;;;;371.67;287.13;;;;;;;22.95;73.33;99657.06;407946;24;939;-75
2022/06/29 00:46:47;;;;;;;371.73;287.45;;;;;;;22.98;72.83;99655.91;409599;24;1406;-75
2022/06/29 00:46:59;;;;;;;372.25;287.65;;;;;;;22.99;73.47;99654.94;409755;24;1053;-75
2022/06/29 00:47:09;;;;;;;371.65;287.13;;;;;;;22.99;73.04;99657.59;411531;24;1469;-75
2022/06/29 00:47:21;;;;;;;371.93;290.30;;;;;;;22.99;73.38;99661.13;411683;24;893;-75
2022/06/29 00:47:31;;;;;;;372.75;290.35;;;;;;;22.97;73.00;99659.56;408663;24;928;-75
2022/06/29 00:47:42;;;;;;;375.37;294.23;;;;;;;22.96;73.21;99660.59;411297;23;1268;-75
2022/06/29 00:47:52;;;;;;;378.35;296.38;;;;;;;22.94;72.94;99655.38;411697;24;893;-75
2022/06/29 00:48:03;;;;;;;379.70;296.67;;;;;;;22.93;72.89;99664.38;411487;24;1093;-75
2022/06/29 00:48:13;;;;;;;377.75;290.10;;;;;;;22.91;73.34;99660.16;413454;23;866;-75
2022/06/29 00:48:24;;;;;;;376.33;288.50;;;;;;;22.90;73.21;99659.31;411785;24;1291;-75
2022/06/29 00:48:35;;;;;;;373.70;288.80;;;;;;;22.88;73.42;99654.13;411666;24;888;-75
2022/06/29 00:48:46;;;;;;;373.65;290.98;;;;;;;22.90;73.70;99656.66;411598;24;1330;-75
2022/06/29 00:48:56;;;;;;;371.95;288.15;;;;;;;22.90;73.52;99656.66;411655;24;819;-75
2022/06/29 00:49:07;;;;;;;373.33;288.33;;;;;;;22.92;73.29;99653.84;409685;24;985;-75
2022/06/29 00:49:18;;;;;;;373.92;292.05;;;;;;;22.91;73.59;99661.00;411479;24;1055;-75
2022/06/29 00:49:29;;;;;;;374.33;295.23;;;;;;;22.92;73.65;99656.50;411620;24;1356;-75